<?xml version="1.0" encoding="UTF-8"?>
<gpx  version="1.1"  creator="Verlag Esterbauer" xmlns:xsi="http://www.w3.org/2001/XMLSchema-instance" xmlns="http://www.topografix.com/GPX/1/1"  xsi:schemaLocation="http://www.topografix.com/GPX/1/1 http://www.topografix.com/GPX/1/1/gpx.xsd">
<trk>
  <name>wf-gran_T24</name>
  <trkseg>
    <trkpt lat="28.035975" lon="-15.460315">
    <time>1971-01-13T12:01:19Z</time>
    </trkpt>
    <trkpt lat="28.035981" lon="-15.460321">
    <time>1971-01-13T12:01:20Z</time>
    </trkpt>
    <trkpt lat="28.035987" lon="-15.460337">
    <time>1971-01-13T12:01:21Z</time>
    </trkpt>
    <trkpt lat="28.035651" lon="-15.460071">
    <time>1971-01-13T12:02:02Z</time>
    </trkpt>
    <trkpt lat="28.035619" lon="-15.459955">
    <time>1971-01-13T12:02:13Z</time>
    </trkpt>
    <trkpt lat="28.035505" lon="-15.459856">
    <time>1971-01-13T12:02:27Z</time>
    </trkpt>
    <trkpt lat="28.035299" lon="-15.459919">
    <time>1971-01-13T12:02:49Z</time>
    </trkpt>
    <trkpt lat="28.034482" lon="-15.460077">
    <time>1971-01-13T12:04:11Z</time>
    </trkpt>
    <trkpt lat="28.033771" lon="-15.460057">
    <time>1971-01-13T12:05:22Z</time>
    </trkpt>
    <trkpt lat="28.033622" lon="-15.459893">
    <time>1971-01-13T12:05:43Z</time>
    </trkpt>
    <trkpt lat="28.033507" lon="-15.45961">
    <time>1971-01-13T12:06:11Z</time>
    </trkpt>
    <trkpt lat="28.033539" lon="-15.459374">
    <time>1971-01-13T12:06:32Z</time>
    </trkpt>
    <trkpt lat="28.033307" lon="-15.459611">
    <time>1971-01-13T12:07:03Z</time>
    </trkpt>
    <trkpt lat="28.033242" lon="-15.459623">
    <time>1971-01-13T12:07:09Z</time>
    </trkpt>
    <trkpt lat="28.033243" lon="-15.459623">
    <time>1971-01-13T12:07:10Z</time>
    </trkpt>
    <trkpt lat="28.032755" lon="-15.459696">
    <time>1971-01-13T12:07:59Z</time>
    </trkpt>
    <trkpt lat="28.032694" lon="-15.459594">
    <time>1971-01-13T12:08:10Z</time>
    </trkpt>
    <trkpt lat="28.032592" lon="-15.459635">
    <time>1971-01-13T12:08:20Z</time>
    </trkpt>
    <trkpt lat="28.032453" lon="-15.45968">
    <time>1971-01-13T12:08:35Z</time>
    </trkpt>
    <trkpt lat="28.032482" lon="-15.459672">
    <time>1971-01-13T12:08:38Z</time>
    </trkpt>
    <trkpt lat="28.031561" lon="-15.459604">
    <time>1971-01-13T12:10:10Z</time>
    </trkpt>
    <trkpt lat="28.030946" lon="-15.459892">
    <time>1971-01-13T12:11:16Z</time>
    </trkpt>
    <trkpt lat="28.030474" lon="-15.459389">
    <time>1971-01-13T12:12:21Z</time>
    </trkpt>
    <trkpt lat="28.030222" lon="-15.459232">
    <time>1971-01-13T12:12:50Z</time>
    </trkpt>
    <trkpt lat="28.02989" lon="-15.459128">
    <time>1971-01-13T12:13:24Z</time>
    </trkpt>
    <trkpt lat="28.029893" lon="-15.459115">
    <time>1971-01-13T12:13:25Z</time>
    </trkpt>
    <trkpt lat="28.029695" lon="-15.458985">
    <time>1971-01-13T12:13:48Z</time>
    </trkpt>
    <trkpt lat="28.029645" lon="-15.459023">
    <time>1971-01-13T12:13:54Z</time>
    </trkpt>
    <trkpt lat="28.029376" lon="-15.458304">
    <time>1971-01-13T12:15:03Z</time>
    </trkpt>
    <trkpt lat="28.028663" lon="-15.45713">
    <time>1971-01-13T12:17:09Z</time>
    </trkpt>
    <trkpt lat="28.028226" lon="-15.45626">
    <time>1971-01-13T12:18:38Z</time>
    </trkpt>
    <trkpt lat="28.028135" lon="-15.455941">
    <time>1971-01-13T12:19:07Z</time>
    </trkpt>
    <trkpt lat="28.027857" lon="-15.454503">
    <time>1971-01-13T12:21:17Z</time>
    </trkpt>
    <trkpt lat="28.02799" lon="-15.453806">
    <time>1971-01-13T12:22:21Z</time>
    </trkpt>
    <trkpt lat="28.028231" lon="-15.453182">
    <time>1971-01-13T12:23:21Z</time>
    </trkpt>
    <trkpt lat="28.028672" lon="-15.452523">
    <time>1971-01-13T12:24:34Z</time>
    </trkpt>
    <trkpt lat="28.028917" lon="-15.452338">
    <time>1971-01-13T12:25:03Z</time>
    </trkpt>
    <trkpt lat="28.028923" lon="-15.452336">
    <time>1971-01-13T12:25:04Z</time>
    </trkpt>
    <trkpt lat="28.029326" lon="-15.451927">
    <time>1971-01-13T12:25:58Z</time>
    </trkpt>
    <trkpt lat="28.030101" lon="-15.451448">
    <time>1971-01-13T12:27:26Z</time>
    </trkpt>
    <trkpt lat="28.03056" lon="-15.450926">
    <time>1971-01-13T12:28:31Z</time>
    </trkpt>
    <trkpt lat="28.030767" lon="-15.450814">
    <time>1971-01-13T12:28:54Z</time>
    </trkpt>
    <trkpt lat="28.031318" lon="-15.450796">
    <time>1971-01-13T12:29:49Z</time>
    </trkpt>
    <trkpt lat="28.031792" lon="-15.451021">
    <time>1971-01-13T12:30:40Z</time>
    </trkpt>
    <trkpt lat="28.032477" lon="-15.451165">
    <time>1971-01-13T12:31:50Z</time>
    </trkpt>
    <trkpt lat="28.032837" lon="-15.451384">
    <time>1971-01-13T12:32:31Z</time>
    </trkpt>
    <trkpt lat="28.032836" lon="-15.451383">
    <time>1971-01-13T12:32:31Z</time>
    </trkpt>
    <trkpt lat="28.032915" lon="-15.45145">
    <time>1971-01-13T12:32:41Z</time>
    </trkpt>
    <trkpt lat="28.033323" lon="-15.451896">
    <time>1971-01-13T12:33:37Z</time>
    </trkpt>
    <trkpt lat="28.03377" lon="-15.45214">
    <time>1971-01-13T12:34:27Z</time>
    </trkpt>
    <trkpt lat="28.034024" lon="-15.452455">
    <time>1971-01-13T12:35:04Z</time>
    </trkpt>
    <trkpt lat="28.034412" lon="-15.452763">
    <time>1971-01-13T12:35:52Z</time>
    </trkpt>
    <trkpt lat="28.034956" lon="-15.453524">
    <time>1971-01-13T12:37:18Z</time>
    </trkpt>
    <trkpt lat="28.035087" lon="-15.453898">
    <time>1971-01-13T12:37:54Z</time>
    </trkpt>
    <trkpt lat="28.035539" lon="-15.45418">
    <time>1971-01-13T12:38:45Z</time>
    </trkpt>
    <trkpt lat="28.035947" lon="-15.454943">
    <time>1971-01-13T12:40:04Z</time>
    </trkpt>
    <trkpt lat="28.03688" lon="-15.455188">
    <time>1971-01-13T12:41:40Z</time>
    </trkpt>
    <trkpt lat="28.037149" lon="-15.455245">
    <time>1971-01-13T12:42:07Z</time>
    </trkpt>
    <trkpt lat="28.037623" lon="-15.455561">
    <time>1971-01-13T12:43:02Z</time>
    </trkpt>
    <trkpt lat="28.037685" lon="-15.455673">
    <time>1971-01-13T12:43:14Z</time>
    </trkpt>
    <trkpt lat="28.037208" lon="-15.455674">
    <time>1971-01-13T12:44:01Z</time>
    </trkpt>
    <trkpt lat="28.036925" lon="-15.455725">
    <time>1971-01-13T12:44:30Z</time>
    </trkpt>
    <trkpt lat="28.036594" lon="-15.455854">
    <time>1971-01-13T12:45:05Z</time>
    </trkpt>
    <trkpt lat="28.03653" lon="-15.455944">
    <time>1971-01-13T12:45:15Z</time>
    </trkpt>
    <trkpt lat="28.036421" lon="-15.456442">
    <time>1971-01-13T12:46:00Z</time>
    </trkpt>
    <trkpt lat="28.03642" lon="-15.456463">
    <time>1971-01-13T12:46:02Z</time>
    </trkpt>
    <trkpt lat="28.036352" lon="-15.457336">
    <time>1971-01-13T12:47:20Z</time>
    </trkpt>
    <trkpt lat="28.03615" lon="-15.45808">
    <time>1971-01-13T12:48:29Z</time>
    </trkpt>
    <trkpt lat="28.035772" lon="-15.459037">
    <time>1971-01-13T12:50:01Z</time>
    </trkpt>
    <trkpt lat="28.035967" lon="-15.459776">
    <time>1971-01-13T12:51:09Z</time>
    </trkpt>
    <trkpt lat="28.036179" lon="-15.460096">
    <time>1971-01-13T12:51:45Z</time>
    </trkpt>
    <trkpt lat="28.036024" lon="-15.460344">
    <time>1971-01-13T12:52:12Z</time>
    </trkpt>
    <trkpt lat="28.036091" lon="-15.460215">
    <time>1971-01-13T12:52:25Z</time>
    </trkpt>
  </trkseg>
</trk>
</gpx>
